Time;durP1;ratioP1;P1;durP2;ratioP2;P2;SDS_P1;SDS_P2;PMS_P1;PMS_P2;Temp;Humidity;BMP_temperature;BMP_pressure;BME280_temperature;BME280_humidity;BME280_pressure;Samples;Min_cycle;Max_cycle;Signal;HPM_P1;HPM_P2
2022/01/25 00:08:38;;;;;;;25.57;13.72;;;;;;;11.33;21.23;100490.61;1785276;78;20944;-62
2022/01/25 00:25:44;;;;;;;23.52;13.30;;;;;;;11.26;21.21;100480.23;1788268;78;21143;-62
2022/01/25 00:27:37;;;;;;;26.15;14.40;;;;;;;11.19;21.25;100462.66;1770796;80;20888;-62
2022/01/25 00:32:13;;;;;;;19.90;12.45;;;;;;;11.12;21.22;100453.12;1784224;79;20919;-62
2022/01/25 00:34:39;;;;;;;21.12;12.60;;;;;;;11.08;21.22;100454.39;1780713;78;20951;-62
2022/01/25 00:37:06;;;;;;;20.77;12.82;;;;;;;11.03;21.24;100447.83;1773425;79;21115;-61
2022/01/25 00:39:32;;;;;;;21.87;12.07;;;;;;;11.02;21.22;100453.67;1773036;81;20895;-62
2022/01/25 00:41:58;;;;;;;18.37;12.33;;;;;;;10.94;21.19;100448.26;1774160;79;20963;-61
2022/01/25 00:44:30;;;;;;;20.10;11.70;;;;;;;10.85;21.26;100443.81;1774609;79;21525;-61
2022/01/25 00:46:53;;;;;;;23.65;13.25;;;;;;;10.75;21.32;100440.86;1773129;80;20869;-60
2022/01/25 00:49:27;;;;;;;17.23;12.37;;;;;;;10.70;21.37;100435.98;1773372;81;21762;-60
2022/01/25 00:54:27;;;;;;;19.02;11.95;;;;;;;10.69;21.35;100424.17;1774046;79;20966;-62
2022/01/25 00:56:47;;;;;;;17.42;11.65;;;;;;;10.66;21.34;100419.98;1771975;80;21505;-61
2022/01/25 00:59:20;;;;;;;15.25;10.50;;;;;;;10.64;21.32;100423.78;1773447;79;20972;-61
2022/01/25 01:01:49;;;;;;;15.68;10.85;;;;;;;10.58;21.36;100415.89;1774653;79;21115;-62
2022/01/25 01:04:16;;;;;;;16.05;10.48;;;;;;;10.59;21.38;100418.03;1773785;79;21423;-62
2022/01/25 01:06:45;;;;;;;14.45;11.25;;;;;;;10.55;21.33;100412.19;1764661;79;20935;-62
2022/01/25 01:09:12;;;;;;;16.65;11.03;;;;;;;10.52;21.36;100403.16;1773477;79;21431;-62
2022/01/25 01:11:51;;;;;;;15.88;10.60;;;;;;;10.52;21.31;100404.02;1773632;79;20984;-61
2022/01/25 01:14:47;;;;;;;16.97;11.33;;;;;;;10.52;21.25;100408.00;1772318;79;21096;-61
2022/01/25 01:17:19;;;;;;;16.20;11.03;;;;;;;10.48;21.23;100403.13;1765222;79;20880;-61
2022/01/25 01:33:40;;;;;;;17.17;12.43;;;;;;;10.34;21.30;100384.50;1764135;81;20904;-60
2022/01/25 01:36:24;;;;;;;17.50;11.90;;;;;;;10.37;21.28;100392.19;1784543;78;20950;-61
2022/01/25 01:41:24;;;;;;;16.80;11.33;;;;;;;10.40;21.18;100375.91;1768295;79;21156;-61
2022/01/25 01:43:36;;;;;;;19.27;11.38;;;;;;;10.43;21.17;100374.29;1773926;78;20910;-62
2022/01/25 01:51:26;;;;;;;17.60;12.23;;;;;;;10.71;20.98;100353.00;1790968;78;21513;-61
2022/01/25 01:53:47;;;;;;;21.12;12.80;;;;;;;10.74;20.97;100350.05;1777508;80;21355;-61
2022/01/25 01:56:13;;;;;;;17.05;12.25;;;;;;;10.73;20.99;100353.19;1790372;80;20911;-61
2022/01/25 01:58:40;;;;;;;17.82;11.88;;;;;;;10.70;21.09;100350.83;1791370;78;21616;-61
2022/01/25 02:01:10;;;;;;;17.00;11.50;;;;;;;10.75;21.03;100341.89;1788232;80;21753;-61
2022/01/25 02:03:37;;;;;;;21.35;13.13;;;;;;;10.85;20.99;100337.34;1786462;79;20973;-61
2022/01/25 02:06:03;;;;;;;16.57;11.53;;;;;;;10.83;21.03;100323.84;1782832;78;21799;-61
2022/01/25 02:08:29;;;;;;;19.07;12.05;;;;;;;10.88;21.01;100325.06;1790919;78;20912;-61
2022/01/25 02:10:56;;;;;;;17.40;11.65;;;;;;;10.91;21.00;100319.92;1789879;79;20914;-61
2022/01/25 02:13:23;;;;;;;18.45;12.13;;;;;;;10.95;20.97;100319.45;1790946;78;21406;-62
2022/01/25 02:15:50;;;;;;;16.40;11.80;;;;;;;10.97;20.96;100317.50;1790993;78;20974;-62
2022/01/25 02:23:47;;;;;;;14.80;10.93;;;;;;;11.06;20.86;100310.41;1784814;80;20923;-60
2022/01/25 02:26:13;;;;;;;19.98;12.20;;;;;;;11.07;20.83;100302.28;1770522;80;20891;-60
2022/01/25 02:28:42;;;;;;;17.45;11.70;;;;;;;11.10;20.81;100311.30;1791675;78;21543;-62
2022/01/25 02:31:10;;;;;;;18.50;11.63;;;;;;;11.15;20.79;100311.67;1789347;78;21148;-62
2022/01/25 02:33:37;;;;;;;18.57;12.05;;;;;;;11.22;20.78;100313.70;1765958;78;20987;-62
2022/01/25 02:36:08;;;;;;;18.05;12.03;;;;;;;11.30;20.76;100296.45;1790941;78;20852;-61
2022/01/25 02:38:35;;;;;;;17.07;11.83;;;;;;;11.36;20.71;100282.03;1790982;78;21474;-61
2022/01/25 02:41:02;;;;;;;17.07;12.25;;;;;;;11.37;20.71;100278.84;1789397;79;20859;-61
2022/01/25 02:43:28;;;;;;;20.55;12.88;;;;;;;11.38;20.74;100280.53;1764024;80;21935;-61
2022/01/25 02:46:19;;;;;;;17.80;12.63;;;;;;;11.41;20.75;100276.23;1760159;80;20885;-61
2022/01/25 02:48:32;;;;;;;18.20;11.73;;;;;;;11.47;20.73;100270.28;1785879;78;20980;-61
2022/01/25 02:51:01;;;;;;;17.25;11.50;;;;;;;11.54;20.70;100261.98;1790713;78;21508;-61
2022/01/25 02:53:28;;;;;;;18.25;12.73;;;;;;;11.60;20.67;100244.05;1788055;80;21000;-61
2022/01/25 02:55:55;;;;;;;18.05;12.13;;;;;;;11.62;20.68;100251.38;1790254;80;21090;-61
2022/01/25 02:58:22;;;;;;;19.65;12.75;;;;;;;11.68;20.71;100245.39;1790866;78;21402;-61
2022/01/25 03:00:48;;;;;;;18.60;11.95;;;;;;;11.68;20.77;100244.94;1778821;78;20958;-62
2022/01/25 03:03:15;;;;;;;18.60;12.63;;;;;;;11.73;20.76;100235.96;1790098;78;21425;-61
2022/01/25 03:05:42;;;;;;;17.02;11.97;;;;;;;11.78;20.71;100235.51;1790463;80;21001;-62
2022/01/25 03:08:12;;;;;;;18.87;12.30;;;;;;;11.77;20.70;100241.83;1790324;79;21088;-61
2022/01/25 03:10:41;;;;;;;20.32;12.98;;;;;;;11.80;20.70;100238.00;1787166;78;21496;-62
2022/01/25 03:13:14;;;;;;;17.82;13.08;;;;;;;11.83;20.69;100234.53;1772828;80;20979;-61
2022/01/25 03:15:57;;;;;;;16.07;11.30;;;;;;;11.86;20.68;100227.55;1789827;79;20931;-62
2022/01/25 03:18:24;;;;;;;16.80;11.97;;;;;;;11.85;20.74;100224.53;1789051;78;20907;-61
2022/01/25 03:20:52;;;;;;;18.17;12.20;;;;;;;11.87;20.75;100220.36;1788239;79;21346;-61
2022/01/25 03:23:21;;;;;;;16.80;11.85;;;;;;;11.86;20.84;100213.37;1789808;79;21008;-61
2022/01/25 03:25:48;;;;;;;19.82;13.58;;;;;;;11.95;20.85;100215.91;1777996;80;21462;-61
2022/01/25 03:28:17;;;;;;;22.73;13.60;;;;;;;12.02;20.82;100212.92;1790822;78;21450;-62
2022/01/25 03:30:44;;;;;;;21.05;13.30;;;;;;;12.04;20.83;100218.95;1789950;78;20919;-61
2022/01/25 03:33:12;;;;;;;20.45;12.10;;;;;;;12.06;20.88;100208.95;1790271;79;21490;-61
2022/01/25 03:35:39;;;;;;;15.48;11.65;;;;;;;12.08;20.92;100205.61;1782984;78;20967;-61
2022/01/25 03:38:05;;;;;;;18.80;12.75;;;;;;;12.19;20.92;100200.48;1774846;79;20871;-61
2022/01/25 03:40:33;;;;;;;17.80;13.03;;;;;;;12.26;20.84;100194.32;1774016;79;20892;-61
2022/01/25 03:43:01;;;;;;;16.05;11.73;;;;;;;12.24;20.87;100177.65;1774178;79;20967;-61
2022/01/25 03:45:31;;;;;;;16.15;12.13;;;;;;;12.29;20.91;100183.33;1773664;79;21140;-61
2022/01/25 03:50:42;;;;;;;18.82;12.95;;;;;;;12.45;20.83;100180.34;1763990;79;21497;-62
2022/01/25 03:53:10;;;;;;;15.95;11.00;;;;;;;12.50;20.78;100179.34;1772042;79;21548;-61
2022/01/25 03:55:37;;;;;;;17.10;11.50;;;;;;;12.55;20.80;100174.34;1770157;79;22322;-61
2022/01/25 03:58:04;;;;;;;15.72;11.38;;;;;;;12.58;20.79;100174.85;1754393;81;21146;-61
2022/01/25 04:00:32;;;;;;;17.50;12.58;;;;;;;12.60;20.76;100175.52;1773051;79;21044;-61
2022/01/25 04:03:15;;;;;;;16.52;12.43;;;;;;;12.65;20.73;100175.84;1772644;81;20927;-61
2022/01/25 04:08:04;;;;;;;17.67;11.68;;;;;;;12.69;20.76;100159.00;1762589;80;21101;-61
2022/01/25 04:10:32;;;;;;;17.52;12.28;;;;;;;12.74;20.75;100154.84;1771954;81;21134;-62
2022/01/25 04:12:58;;;;;;;17.15;12.00;;;;;;;12.72;20.76;100160.02;1780176;79;21549;-61
2022/01/25 04:15:25;;;;;;;21.60;12.25;;;;;;;12.77;20.74;100160.34;1771070;79;20903;-61
2022/01/25 04:18:01;;;;;;;17.70;11.78;;;;;;;12.78;20.71;100160.66;1773098;81;20900;-61
2022/01/25 04:20:27;;;;;;;16.57;11.38;;;;;;;12.71;20.74;100152.99;1773350;79;20984;-60
2022/01/25 04:25:32;;;;;;;17.92;12.23;;;;;;;12.81;20.83;100150.98;1761892;79;21402;-61
2022/01/25 04:27:59;;;;;;;18.20;13.35;;;;;;;12.87;20.78;100136.97;1773749;79;20982;-61
2022/01/25 04:30:25;;;;;;;18.70;13.20;;;;;;;12.93;20.68;100134.44;1772719;81;21077;-61
2022/01/25 04:33:01;;;;;;;18.92;12.73;;;;;;;12.95;20.63;100128.94;1773321;79;20923;-61
2022/01/25 04:35:29;;;;;;;19.27;13.25;;;;;;;12.97;20.64;100131.77;1775664;79;22043;-60
2022/01/25 04:52:09;;;;;;;22.80;13.90;;;;;;;13.04;20.70;100109.20;1788183;78;20879;-61
2022/01/25 04:54:11;;;;;;;19.20;13.53;;;;;;;13.10;20.69;100105.89;1767246;80;21578;-62
2022/01/25 04:56:51;;;;;;;18.12;13.40;;;;;;;13.12;20.72;100099.88;1786807;80;20903;-63
2022/01/25 04:59:21;;;;;;;23.75;13.93;;;;;;;13.16;20.71;100095.88;1786813;78;22171;-63
2022/01/25 05:01:39;;;;;;;18.92;12.95;;;;;;;13.11;20.78;100098.22;1787248;78;21172;-62
2022/01/25 05:04:13;;;;;;;21.15;14.30;;;;;;;13.13;20.85;100097.55;1787823;80;20868;-63
2022/01/25 05:06:36;;;;;;;21.60;14.75;;;;;;;13.23;20.81;100106.19;1787336;80;20915;-63
2022/01/25 05:09:11;;;;;;;17.57;12.98;;;;;;;13.25;20.82;100110.85;1787823;79;20979;-61
2022/01/25 05:11:41;;;;;;;20.45;12.70;;;;;;;13.30;20.87;100102.31;1787661;78;21065;-61
2022/01/25 05:16:47;;;;;;;23.40;14.75;;;;;;;13.48;20.89;100095.72;1788955;78;21417;-61
2022/01/25 05:22:18;;;;;;;21.65;14.43;;;;;;;13.55;20.69;100085.19;1787286;78;20990;-62
2022/01/25 05:24:41;;;;;;;22.65;14.47;;;;;;;13.52;20.74;100081.02;1782422;78;20904;-62
2022/01/25 05:27:09;;;;;;;22.95;14.65;;;;;;;13.61;20.71;100081.80;1787495;80;21126;-61
2022/01/25 05:29:36;;;;;;;25.57;14.38;;;;;;;13.70;20.61;100078.58;1788580;78;21484;-64
2022/01/25 05:32:05;;;;;;;22.50;14.35;;;;;;;13.69;20.65;100076.94;1788000;80;32573;-62
2022/01/25 05:34:32;;;;;;;20.17;14.13;;;;;;;13.69;20.62;100072.92;1788311;78;20903;-62
2022/01/25 05:36:59;;;;;;;24.23;15.80;;;;;;;13.70;20.66;100062.53;1776479;80;20943;-63
2022/01/25 05:39:32;;;;;;;23.73;15.30;;;;;;;18.21;17.03;100043.69;1773838;79;21940;-64
2022/01/25 05:42:15;;;;;;;23.42;14.68;;;;;;;16.54;18.14;100042.52;1773248;80;21591;-62
2022/01/25 05:47:06;;;;;;;21.23;15.75;;;;;;;15.39;19.13;100056.95;1774882;79;20888;-61
2022/01/25 05:49:36;;;;;;;23.87;15.88;;;;;;;15.57;29.08;100052.56;1773161;81;20888;-61
2022/01/25 05:52:06;;;;;;;22.98;15.48;;;;;;;14.27;23.06;100054.94;1767554;79;20999;-61
2022/01/25 05:54:32;;;;;;;27.13;17.25;;;;;;;13.93;22.38;100047.34;1773264;79;20986;-60
2022/01/25 05:56:59;;;;;;;27.85;16.75;;;;;;;13.96;21.95;100044.31;1773261;81;21048;-60
2022/01/25 05:59:25;;;;;;;24.82;16.20;;;;;;;13.83;21.78;100036.89;1769734;79;20880;-61
2022/01/25 06:01:52;;;;;;;25.75;16.48;;;;;;;13.74;21.67;100034.45;1767610;79;20963;-62
2022/01/25 06:04:18;;;;;;;26.57;16.60;;;;;;;13.72;21.62;100035.95;1774106;79;21226;-63
2022/01/25 06:06:44;;;;;;;28.15;18.20;;;;;;;13.76;21.53;100036.44;1773700;79;21680;-60
2022/01/25 06:09:12;;;;;;;24.87;16.65;;;;;;;13.71;21.51;100028.13;1772028;79;21405;-62
2022/01/25 06:11:39;;;;;;;25.75;17.40;;;;;;;13.73;21.50;100028.77;1767494;79;20932;-61
2022/01/25 06:14:06;;;;;;;29.42;19.27;;;;;;;13.75;21.58;100021.39;1773288;81;20904;-63
2022/01/25 06:16:33;;;;;;;26.65;18.10;;;;;;;13.82;21.57;100023.70;1774175;79;21155;-66
2022/01/25 06:19:00;;;;;;;30.92;19.57;;;;;;;13.79;21.59;100019.52;1773531;79;20936;-61
2022/01/25 06:21:26;;;;;;;37.83;21.82;;;;;;;13.48;21.89;100013.37;1774491;79;22290;-60
2022/01/25 06:23:53;;;;;;;41.75;24.63;;;;;;;13.32;22.13;100015.62;1768628;79;21054;-62
2022/01/25 06:26:19;;;;;;;42.05;23.40;;;;;;;13.22;22.33;100013.67;1747123;79;21045;-62
2022/01/25 06:28:46;;;;;;;34.78;21.10;;;;;;;13.28;22.30;100006.31;1752404;79;23344;-60
2022/01/25 06:31:14;;;;;;;31.87;20.45;;;;;;;13.27;22.41;100001.95;1751141;79;20849;-60
2022/01/25 06:33:42;;;;;;;29.98;19.30;;;;;;;13.38;22.30;100004.74;1753546;79;21024;-61
2022/01/25 06:36:09;;;;;;;31.00;19.70;;;;;;;13.35;22.34;99999.74;1756269;79;20974;-61
2022/01/25 06:38:35;;;;;;;34.10;21.05;;;;;;;13.28;22.29;99994.28;1770992;78;20903;-61
2022/01/25 06:41:02;;;;;;;31.40;18.85;;;;;;;13.11;22.45;99994.05;1783568;79;21501;-61
2022/01/25 06:43:29;;;;;;;33.78;19.60;;;;;;;13.15;22.49;99990.01;1766057;79;20947;-60
2022/01/25 06:45:59;;;;;;;32.63;19.92;;;;;;;13.19;22.49;99989.17;1790969;78;20903;-60
2022/01/25 06:48:23;;;;;;;29.82;18.07;;;;;;;13.14;22.60;99986.99;1778772;79;21428;-62
2022/01/25 06:50:50;;;;;;;30.70;19.98;;;;;;;13.13;22.59;99981.34;1790451;79;20978;-63
2022/01/25 06:53:16;;;;;;;35.15;21.30;;;;;;;13.22;22.53;99980.81;1791541;78;21068;-62
2022/01/25 06:55:42;;;;;;;30.20;19.70;;;;;;;13.34;22.42;99984.23;1786653;80;20938;-64
2022/01/25 06:58:09;;;;;;;34.03;20.88;;;;;;;13.42;22.41;99984.20;1790312;80;20970;-67
2022/01/25 07:00:35;;;;;;;32.65;18.95;;;;;;;13.44;22.41;99977.33;1784872;78;21043;-64
2022/01/25 07:03:02;;;;;;;30.02;19.70;;;;;;;13.42;22.55;99980.19;1790369;80;20928;-64
2022/01/25 07:05:29;;;;;;;29.65;19.67;;;;;;;13.49;22.52;99975.79;1787118;79;21206;-64
2022/01/25 07:07:56;;;;;;;30.40;19.92;;;;;;;13.52;22.52;99969.26;1791389;78;21405;-63
2022/01/25 07:10:22;;;;;;;32.50;19.85;;;;;;;13.55;22.57;99966.23;1790740;78;20883;-62
2022/01/25 07:12:49;;;;;;;33.63;20.00;;;;;;;13.65;22.48;99968.66;1765400;78;20931;-63
2022/01/25 07:15:17;;;;;;;31.95;19.50;;;;;;;13.75;22.43;99970.59;1765800;78;21559;-62
2022/01/25 07:17:45;;;;;;;32.38;20.60;;;;;;;13.75;22.49;99968.75;1768015;78;20978;-65
2022/01/25 07:20:12;;;;;;;30.10;18.52;;;;;;;13.78;22.53;99970.23;1764479;79;20875;-64
2022/01/25 07:22:40;;;;;;;31.95;19.50;;;;;;;13.80;22.56;99966.88;1767466;79;20990;-63
2022/01/25 07:25:09;;;;;;;33.20;20.97;;;;;;;13.95;28.57;99963.73;1764555;79;20982;-63
2022/01/25 07:27:35;;;;;;;36.40;20.65;;;;;;;14.05;26.37;99965.15;1768180;78;20981;-63
2022/01/25 07:30:04;;;;;;;36.40;22.15;;;;;;;13.87;23.88;99964.63;1764799;79;21149;-62
2022/01/25 07:32:31;;;;;;;35.40;22.02;;;;;;;14.03;24.94;99960.99;1766857;79;21009;-63
2022/01/25 07:34:58;;;;;;;33.15;20.70;;;;;;;13.99;24.21;99956.53;1765461;78;21057;-62
2022/01/25 07:37:24;;;;;;;35.95;20.32;;;;;;;13.89;23.99;99953.78;1770341;78;20967;-62
2022/01/25 07:39:50;;;;;;;33.08;20.27;;;;;;;13.89;23.76;99951.10;1768611;78;21038;-62
2022/01/25 07:42:18;;;;;;;31.80;19.60;;;;;;;13.91;23.99;99949.08;1765746;78;21622;-63
2022/01/25 07:44:50;;;;;;;32.28;19.30;;;;;;;13.96;24.07;99950.20;1778194;79;20923;-61
2022/01/25 07:47:16;;;;;;;35.68;21.68;;;;;;;14.01;23.93;99950.48;1790308;80;20887;-62
2022/01/25 07:49:42;;;;;;;35.03;21.07;;;;;;;14.05;23.78;99938.93;1790135;79;20922;-61
2022/01/25 07:52:09;;;;;;;38.78;20.62;;;;;;;14.19;28.73;99947.47;1772042;78;21433;-63
2022/01/25 07:54:35;;;;;;;34.35;20.92;;;;;;;14.27;23.78;99950.07;1765659;78;21164;-61
2022/01/25 07:57:02;;;;;;;31.33;19.80;;;;;;;14.35;23.37;99946.51;1769949;79;20954;-62
2022/01/25 07:59:28;;;;;;;36.40;20.92;;;;;;;14.48;23.07;99936.00;1790273;79;21504;-62
2022/01/25 08:01:55;;;;;;;33.83;20.32;;;;;;;14.39;23.14;99930.42;1790797;78;20934;-63
2022/01/25 08:04:21;;;;;;;33.00;20.27;;;;;;;14.43;23.01;99929.87;1790004;78;20832;-64
2022/01/25 08:06:48;;;;;;;33.13;20.97;;;;;;;14.41;22.71;99911.83;1732382;80;21842;-63
2022/01/25 08:09:14;;;;;;;33.35;21.40;;;;;;;14.41;22.71;99911.83;1716636;82;20927;-63
2022/01/25 08:11:42;;;;;;;33.25;21.57;;;;;;;14.46;22.80;99912.10;1719881;82;21097;-63
2022/01/25 08:14:17;;;;;;;39.08;22.85;;;;;;;14.57;22.82;99914.30;1716250;82;21567;-61
2022/01/25 08:16:44;;;;;;;38.13;22.37;;;;;;;14.58;22.88;99910.61;1718530;82;20912;-62
2022/01/25 08:19:11;;;;;;;35.25;21.80;;;;;;;14.82;22.93;99908.98;1715549;82;21177;-64
2022/01/25 08:21:37;;;;;;;34.38;21.42;;;;;;;14.82;22.93;99908.98;1719341;82;20954;-61
2022/01/25 08:24:05;;;;;;;34.45;23.05;;;;;;;14.90;33.92;99912.06;1716510;82;21056;-63
2022/01/25 08:26:32;;;;;;;33.98;22.02;;;;;;;15.03;24.23;99900.66;1703624;81;20957;-64
2022/01/25 08:28:58;;;;;;;37.95;22.80;;;;;;;15.16;23.97;99907.02;1717754;82;20999;-62
2022/01/25 08:31:25;;;;;;;35.25;23.65;;;;;;;15.16;23.37;99906.17;1716942;82;21628;-63
2022/01/25 08:33:52;;;;;;;36.15;22.45;;;;;;;15.05;23.21;99912.02;1724367;81;21442;-63
2022/01/25 08:36:19;;;;;;;38.28;24.30;;;;;;;15.13;23.58;99911.41;1727761;81;20986;-63
2022/01/25 08:38:46;;;;;;;36.75;22.48;;;;;;;14.92;23.19;99909.18;1710237;81;20999;-62
2022/01/25 08:41:13;;;;;;;36.23;23.65;;;;;;;14.92;23.19;99909.18;1706850;81;21443;-63
2022/01/25 08:43:40;;;;;;;35.03;22.73;;;;;;;14.90;23.33;99917.42;1711800;81;21146;-64
2022/01/25 08:46:07;;;;;;;36.23;22.32;;;;;;;15.15;23.75;99908.02;1700472;81;20967;-63
2022/01/25 08:48:34;;;;;;;37.33;24.35;;;;;;;14.90;23.83;99910.72;1703982;81;21058;-62
2022/01/25 08:51:01;;;;;;;33.75;21.90;;;;;;;14.98;23.69;99907.94;1701838;81;20956;-62
2022/01/25 08:53:28;;;;;;;36.90;22.90;;;;;;;14.99;23.50;99904.75;1703591;81;21534;-61
2022/01/25 08:55:54;;;;;;;39.13;23.90;;;;;;;15.12;23.79;99909.73;1704063;81;21160;-61
2022/01/25 08:58:21;;;;;;;43.70;25.92;;;;;;;15.24;23.54;99900.70;1701922;81;20912;-62
2022/01/25 09:00:47;;;;;;;40.48;25.05;;;;;;;15.39;23.37;99892.09;1756639;79;20971;-62
2022/01/25 09:03:13;;;;;;;41.83;24.63;;;;;;;15.46;24.16;99897.56;1766452;81;21002;-64
2022/01/25 09:05:40;;;;;;;44.48;25.50;;;;;;;15.52;23.40;99888.23;1753919;79;21002;-63
2022/01/25 09:08:06;;;;;;;43.65;26.20;;;;;;;15.37;23.28;99888.78;1750163;79;21977;-62
2022/01/25 09:10:34;;;;;;;40.35;24.40;;;;;;;15.37;23.39;99879.39;1752357;79;20959;-63
2022/01/25 09:13:01;;;;;;;34.53;22.32;;;;;;;15.46;24.19;99883.62;1764233;79;20939;-67
2022/01/25 09:15:30;;;;;;;40.83;24.52;;;;;;;15.65;24.22;99877.63;1748455;79;21122;-62
2022/01/25 09:17:56;;;;;;;39.13;25.00;;;;;;;15.86;26.59;99870.05;1745404;79;20896;-62
2022/01/25 09:20:23;;;;;;;43.02;25.48;;;;;;;15.58;24.58;99866.02;1745177;79;21151;-63
2022/01/25 09:22:49;;;;;;;43.48;25.12;;;;;;;15.48;24.74;99862.84;1746617;78;21478;-64
2022/01/25 09:25:16;;;;;;;38.08;24.77;;;;;;;15.47;24.50;99862.50;1744744;79;20942;-62
2022/01/25 09:27:43;;;;;;;39.27;24.30;;;;;;;15.53;24.13;99860.91;1746540;79;21005;-62
2022/01/25 09:30:11;;;;;;;37.60;23.92;;;;;;;15.61;24.35;99851.39;1745631;79;21063;-61
2022/01/25 09:32:37;;;;;;;36.53;23.98;;;;;;;15.71;24.36;99847.86;1746374;79;21111;-61
2022/01/25 09:35:05;;;;;;;40.70;24.75;;;;;;;15.84;24.09;99839.91;1745623;79;20887;-65
2022/01/25 09:37:31;;;;;;;53.15;28.87;;;;;;;16.00;23.87;99842.30;1752826;79;20942;-62
2022/01/25 09:39:58;;;;;;;49.20;28.32;;;;;;;16.19;23.67;99836.22;1761221;79;21685;-63
2022/01/25 09:42:28;;;;;;;46.18;28.35;;;;;;;16.19;23.67;99832.19;1767863;78;20982;-64
2022/01/25 09:44:52;;;;;;;47.20;28.62;;;;;;;16.26;23.62;99833.08;1762458;78;21170;-64
2022/01/25 09:47:19;;;;;;;40.80;26.50;;;;;;;16.41;23.38;99825.72;1773728;78;20958;-59
2022/01/25 09:49:45;;;;;;;40.65;26.37;;;;;;;16.47;23.31;99814.69;1789753;80;21465;-64
2022/01/25 09:52:12;;;;;;;42.05;25.05;;;;;;;16.58;23.71;99820.88;1763486;79;20990;-66
2022/01/25 09:54:39;;;;;;;43.50;26.90;;;;;;;16.90;24.14;99810.73;1770290;78;21001;-63
2022/01/25 09:57:06;;;;;;;42.20;26.27;;;;;;;17.06;24.07;99806.33;1762757;78;21225;-61
2022/01/25 09:59:33;;;;;;;43.73;26.82;;;;;;;17.27;24.39;99802.13;1762633;80;20924;-64
2022/01/25 10:01:59;;;;;;;42.70;27.65;;;;;;;17.32;24.89;99797.98;1790222;80;20987;-61
2022/01/25 10:04:37;;;;;;;42.08;28.52;;;;;;;17.44;24.89;99790.97;1791108;78;20887;-63
2022/01/25 10:07:05;;;;;;;44.03;28.23;;;;;;;17.34;24.09;99780.61;1777803;79;21033;-65
2022/01/25 10:09:32;;;;;;;41.35;26.12;;;;;;;17.26;23.75;99786.18;1760701;78;21173;-62
2022/01/25 10:12:20;;;;;;;43.48;26.80;;;;;;;17.26;23.57;99778.95;1764575;78;21638;-63
2022/01/25 10:15:06;;;;;;;48.40;27.50;;;;;;;17.35;24.19;99775.55;1761700;78;21032;-64
2022/01/25 10:17:33;;;;;;;45.05;26.35;;;;;;;17.25;23.56;99766.56;1762971;78;21536;-63
2022/01/25 10:20:00;;;;;;;40.45;24.85;;;;;;;17.31;23.18;99773.48;1761576;78;21010;-64
2022/01/25 10:22:27;;;;;;;44.58;26.77;;;;;;;17.23;23.02;99768.60;1774806;78;21378;-62
2022/01/25 10:24:53;;;;;;;40.08;25.27;;;;;;;17.36;22.86;99766.97;1777822;78;21413;-62
2022/01/25 10:27:58;;;;;;;44.10;26.52;;;;;;;17.67;22.44;99763.16;1766502;78;21500;-60
2022/01/25 10:29:51;;;;;;;38.60;27.07;;;;;;;17.71;22.40;99760.34;1771257;78;21046;-62
2022/01/25 10:32:17;;;;;;;46.28;27.93;;;;;;;17.80;22.31;99753.20;1766542;78;21068;-62
2022/01/25 10:34:48;;;;;;;44.95;26.90;;;;;;;17.95;22.14;99748.08;1710798;80;22284;-61
2022/01/25 10:37:18;;;;;;;43.42;26.95;;;;;;;18.06;22.19;99750.13;1789178;78;21748;-61
2022/01/25 10:39:51;;;;;;;43.85;27.98;;;;;;;18.13;22.20;99750.41;1723640;80;20977;-61
2022/01/25 10:42:26;;;;;;;46.45;27.87;;;;;;;18.22;22.22;99738.38;1760239;78;21014;-61
2022/01/25 10:45:03;;;;;;;46.77;29.63;;;;;;;18.30;22.41;99735.42;1777544;78;20930;-61
2022/01/25 10:47:56;;;;;;;48.85;28.45;;;;;;;18.60;23.68;99737.59;1774212;78;21163;-62
2022/01/25 10:50:36;;;;;;;49.60;30.08;;;;;;;18.90;33.78;99732.73;1761353;78;20914;-61
2022/01/25 10:53:11;;;;;;;46.02;29.48;;;;;;;19.16;33.96;99723.66;1760827;79;20875;-61
2022/01/25 10:55:51;;;;;;;50.45;30.32;;;;;;;19.19;27.90;99717.00;1762559;78;21532;-61
2022/01/25 10:58:22;;;;;;;48.38;31.23;;;;;;;19.20;27.03;99720.81;1759509;78;20922;-60
2022/01/25 11:00:59;;;;;;;43.00;29.07;;;;;;;19.10;25.68;99711.87;1722615;81;20954;-62
2022/01/25 11:03:51;;;;;;;50.52;32.40;;;;;;;18.88;24.94;99715.97;1765739;79;20991;-62
2022/01/25 11:06:20;;;;;;;54.90;33.70;;;;;;;18.71;24.09;99711.32;1757992;78;20993;-61
2022/01/25 11:09:00;;;;;;;51.92;33.23;;;;;;;18.64;23.58;99707.85;1759617;79;21065;-60
2022/01/25 11:11:25;;;;;;;49.20;31.80;;;;;;;18.45;23.22;99698.29;1757837;79;21002;-61
2022/01/25 11:13:54;;;;;;;45.65;29.80;;;;;;;18.28;23.25;99698.46;1759771;78;21460;-60
2022/01/25 11:16:20;;;;;;;47.45;30.62;;;;;;;18.38;23.01;99689.39;1759029;79;21476;-62
2022/01/25 11:18:47;;;;;;;50.85;31.35;;;;;;;18.41;22.96;99685.45;1759875;79;21069;-59
2022/01/25 11:21:15;;;;;;;53.78;31.75;;;;;;;18.50;22.85;99682.84;1759097;79;21002;-60
2022/01/25 11:23:50;;;;;;;45.30;29.80;;;;;;;18.59;22.63;99678.84;1760476;79;20945;-63
2022/01/25 11:26:19;;;;;;;47.95;31.85;;;;;;;18.52;22.98;99675.38;1759217;79;21118;-60
2022/01/25 11:28:52;;;;;;;51.50;32.70;;;;;;;18.48;22.80;99672.27;1756682;78;20991;-62
2022/01/25 11:31:27;;;;;;;54.30;33.23;;;;;;;18.47;22.63;99667.11;1759259;79;20994;-61
2022/01/25 11:33:56;;;;;;;50.03;30.97;;;;;;;18.51;22.78;99657.55;1759676;78;20917;-61
2022/01/25 11:36:22;;;;;;;51.80;32.88;;;;;;;18.53;23.03;99658.69;1760002;78;21492;-60
2022/01/25 11:38:53;;;;;;;52.78;31.35;;;;;;;18.37;22.91;99648.71;1723190;80;21155;-62
2022/01/25 11:41:24;;;;;;;52.17;31.77;;;;;;;18.27;22.87;99651.56;1759414;79;20942;-62
2022/01/25 11:44:09;;;;;;;50.95;31.05;;;;;;;18.31;23.08;99648.22;1759626;78;20903;-63
2022/01/25 11:46:38;;;;;;;57.25;31.45;;;;;;;18.35;23.07;99648.08;1762963;78;21713;-63
2022/01/25 11:49:14;;;;;;;53.10;30.82;;;;;;;18.52;23.04;99635.48;1768087;80;20851;-63
2022/01/25 11:51:42;;;;;;;55.43;32.40;;;;;;;18.67;22.88;99640.86;1780896;79;21692;-63
2022/01/25 11:54:09;;;;;;;49.58;31.70;;;;;;;18.89;22.79;99636.77;1786115;79;20962;-62
2022/01/25 11:56:37;;;;;;;58.08;33.75;;;;;;;18.90;22.76;99634.91;1761522;79;20978;-64
2022/01/25 11:59:08;;;;;;;67.10;34.75;;;;;;;18.85;22.94;99637.44;1759785;79;21452;-62
2022/01/25 12:01:35;;;;;;;54.35;34.95;;;;;;;18.89;23.50;99635.94;1775532;78;21390;-63
2022/01/25 12:04:06;;;;;;;52.05;33.42;;;;;;;18.79;23.37;99632.91;1787532;78;21153;-63
2022/01/25 12:06:44;;;;;;;54.77;34.95;;;;;;;18.80;23.23;99626.45;1787403;78;20974;-62
2022/01/25 12:09:16;;;;;;;52.73;32.15;;;;;;;18.85;23.31;99618.56;1787004;79;20942;-63
2022/01/25 12:11:50;;;;;;;52.70;33.13;;;;;;;18.77;23.26;99614.80;1787797;78;21514;-64
2022/01/25 12:14:31;;;;;;;53.02;31.02;;;;;;;18.79;23.18;99608.66;1787375;79;20927;-64
2022/01/25 12:17:12;;;;;;;54.05;32.50;;;;;;;18.87;23.62;99598.43;1777024;80;21154;-63
2022/01/25 12:19:50;;;;;;;50.80;31.90;;;;;;;18.91;23.78;99598.28;1787376;78;21390;-63
2022/01/25 12:25:21;;;;;;;46.00;30.30;;;;;;;19.13;23.17;99594.66;1787098;79;21042;-64
2022/01/25 12:28:00;;;;;;;50.43;31.62;;;;;;;19.31;25.63;99596.03;1786546;80;21085;-64
2022/01/25 12:30:32;;;;;;;51.20;31.68;;;;;;;19.50;26.41;99595.55;1787236;78;21147;-61
2022/01/25 12:33:08;;;;;;;49.50;31.90;;;;;;;19.54;26.77;99588.13;1780902;78;21101;-63
2022/01/25 12:35:45;;;;;;;48.98;30.65;;;;;;;19.69;26.34;99582.33;1787142;78;21053;-62
2022/01/25 12:38:28;;;;;;;50.88;33.00;;;;;;;19.71;26.42;99578.88;1767206;78;20966;-64
2022/01/25 12:41:15;;;;;;;52.40;33.80;;;;;;;19.61;25.02;99576.72;1766640;79;21425;-62
2022/01/25 12:43:47;;;;;;;45.23;31.77;;;;;;;19.53;24.54;99580.23;1770249;79;21094;-62
2022/01/25 12:46:18;;;;;;;48.17;32.90;;;;;;;19.47;24.14;99587.91;1765666;79;20919;-63
2022/01/25 12:48:51;;;;;;;49.45;33.42;;;;;;;19.23;24.36;99579.30;1769111;79;20985;-63